Containerships 6 — DABH — position and weather

sailwx.info

Track history (hours):
 
Tides and Currents Weather Stations Pressure Air Temp Water Temp Dewpoint Dewpoint Depression Visibility Wind Speed Wind Dir Waves Ship Positions

Containerships 6

Last reported at 2015-Jul-02 21:31 UTC. Time now 2015-Jul-02 23:10 UTC.
Position N 60°01' E 027°15'.

Length 155 m; beam 21.8 m; draft 8.9 m.

Type: Ship (hazmat cat A). MMSI: 211315096.

Date/timePositionNaut miles runAvg speedWind from/ knotsBaromVisibWave heightAir tempDewpointWater temp
2015-Jul-02 21:31N 60°01' E 027°15'1314.0
2015-Jul-02 20:33N 59°59' E 026°49'1514.7
2015-Jul-02 19:34N 59°57' E 026°20'1515.0
2015-Jul-02 18:34N 59°53' E 025°51'1613.5
2015-Jul-02 17:23N 59°58' E 025°21'16 1.9
2015-Jul-02 09:09N 60°13' E 025°12'0 0.0
2015-Jul-02 08:32N 60°13' E 025°12'0 0.0
2015-Jul-02 05:26N 60°13' E 025°12'0 0.0
2015-Jul-02 04:04N 60°13' E 025°12'0 0.5
2015-Jul-02 03:34N 60°13' E 025°12'1310.8
2015-Jul-02 02:23N 60°00' E 025°06'1517.6
2015-Jul-02 01:32N 59°48' E 024°49'1717.3
2015-Jul-02 00:34N 59°42' E 024°17'1817.8
2015-Jul-01 23:33N 59°37' E 023°44'1817.9
2015-Jul-01 22:33N 59°32' E 023°10'1818.0
2015-Jul-01 21:33N 59°26' E 022°36'1817.9
2015-Jul-01 20:33N 59°15' E 022°09'21217.5
2015-Jul-01 08:24N 56°32' E 017°53'8617.8
2015-Jul-01 03:33N 55°44' E 015°44'1818.0
2015-Jul-01 02:33N 55°35' E 015°17'1817.9
2015-Jul-01 01:33N 55°27' E 014°49'1817.7
2015-Jul-01 00:33N 55°14' E 014°27'1817.8
2015-Jun-30 23:34N 55°01' E 014°07'2417.8
2015-Jun-30 22:14N 54°53' E 013°28'1317.9
2015-Jun-30 21:30N 54°49' E 013°07'2117.5
2015-Jun-30 20:19N 54°41' E 012°34'1417.0
2015-Jun-30 19:29N 54°31' E 012°16'1515.8
2015-Jun-30 18:34N 54°23' E 011°56'1817.6
2015-Jun-30 17:33N 54°14' E 011°29'1717.4
2015-Jun-30 16:33N 54°04' E 011°05'15 1.3
2015-Jun-30 05:32N 53°54' E 010°46'4 4.0
2015-Jun-30 04:30N 53°57' E 010°52'7 7.7
2015-Jun-30 03:33N 54°03' E 010°59'0 0.0
2015-Jun-30 02:32N 54°03' E 010°60'0 0.0
2015-Jun-30 01:23N 54°03' E 010°60'0 0.0
2015-Jun-29 23:30N 54°03' E 010°59'1112.2
2015-Jun-29 22:33N 54°10' E 011°14'1616.2
2015-Jun-29 21:33N 54°25' E 011°24'1615.9
2015-Jun-29 20:33N 54°37' E 011°05'1615.6
2015-Jun-29 19:33N 54°50' E 010°52'1616.2
2015-Jun-29 18:34N 55°05' E 011°02'1716.5
2015-Jun-29 17:33N 55°22' E 011°02'8814.5
2015-Jun-29 11:29N 56°46' E 011°50'1516.5
2015-Jun-29 10:33N 57°00' E 011°42'1616.4
2015-Jun-29 09:33N 57°16' E 011°31'1616.2
2015-Jun-29 08:33N 57°30' E 011°18'1616.0
2015-Jun-29 07:33N 57°41' E 010°56'27015.0
2015-Jun-28 13:30N 54°23' E 005°27'5 5.4
2015-Jun-28 12:32N 54°19' E 005°22'5 5.1
2015-Jun-28 11:33N 54°15' E 005°17'6 6.1
2015-Jun-28 10:33N 54°09' E 005°12'1615.8
2015-Jun-28 09:33N 53°55' E 005°02'1716.9
2015-Jun-28 08:34N 53°39' E 004°52'1716.6
2015-Jun-28 07:33N 53°24' E 004°41'1616.4
2015-Jun-28 06:33N 53°09' E 004°29'1716.5
2015-Jun-28 05:33N 52°54' E 004°17'1716.5
2015-Jun-28 04:33N 52°40' E 004°04'1616.4
2015-Jun-28 03:33N 52°24' E 003°53'1716.9
2015-Jun-28 02:33N 52°08' E 003°55'1514.8
2015-Jun-28 01:33N 51°57' E 004°11'9 9.2
2015-Jun-28 00:33N 51°53' E 004°25'0 0.2
2015-Jun-27 23:33N 51°53' E 004°25'0 0.0
2015-Jun-27 22:33N 51°53' E 004°25'0 0.0
2015-Jun-27 21:34N 51°53' E 004°25'0 0.0
2015-Jun-27 20:33N 51°53' E 004°25'0 0.0
2015-Jun-27 19:33N 51°53' E 004°25'0 0.0
2015-Jun-27 18:34N 51°53' E 004°25'0 0.0
2015-Jun-27 17:33N 51°53' E 004°25'0 0.0
2015-Jun-27 16:34N 51°53' E 004°25'0 0.0
2015-Jun-27 15:34N 51°53' E 004°25'0 0.0
2015-Jun-27 14:33N 51°53' E 004°25'0 0.0
2015-Jun-27 13:33N 51°53' E 004°25'0 0.0
2015-Jun-27 12:33N 51°53' E 004°25'0 0.0
2015-Jun-27 11:33N 51°53' E 004°25'3 2.8
2015-Jun-27 10:33N 51°54' E 004°21'1211.6
2015-Jun-27 09:33N 51°59' E 004°04'1616.0
2015-Jun-27 08:33N 52°04' E 003°39'2017.3
2015-Jun-27 07:25N 52°15' E 003°13'3116.2
2015-Jun-27 05:29N 52°32' E 002°30'1718.2
2015-Jun-27 04:33N 52°42' E 002°07'1918.7
2015-Jun-27 03:33N 52°53' E 001°42'1918.6
2015-Jun-27 02:34N 53°07' E 001°22'5418.1
2015-Jun-26 23:33N 53°52' E 000°31'1817.9
2015-Jun-26 22:33N 54°05' E 000°11'1817.6
2015-Jun-26 21:33N 54°18' W 000°09'1817.7
2015-Jun-26 20:33N 54°31' W 000°30'1717.3
2015-Jun-26 19:33N 54°39' W 000°57'7 0.7
2015-Jun-26 09:14N 54°38' W 001°09'1413.4
2015-Jun-26 08:11N 54°46' W 000°50'914.7
2015-Jun-26 07:33N 54°50' W 000°35'1514.9
2015-Jun-26 06:34N 54°57' W 000°12'1716.4
2015-Jun-26 05:33N 55°04' E 000°13'1616.4
2015-Jun-26 04:33N 55°12' E 000°39'37216.9
2015-Jun-25 06:33N 57°46' E 010°52'1716.8
2015-Jun-25 05:34N 57°34' E 011°15'1716.8
2015-Jun-25 04:34N 57°21' E 011°33'1717.1
2015-Jun-25 03:33N 57°04' E 011°43'1716.8
2015-Jun-25 02:33N 56°49' E 011°54'1716.8
2015-Jun-25 01:33N 56°34' E 012°09'1717.0
2015-Jun-25 00:34N 56°19' E 012°22'1716.7
2015-Jun-24 23:33N 56°04' E 012°37'1616.0
2015-Jun-24 22:34N 55°49' E 012°44'1514.9
2015-Jun-24 21:34N 55°34' E 012°42'1615.5
2015-Jun-24 20:33N 55°19' E 012°41'1817.8
2015-Jun-24 19:33N 55°15' E 013°11'3818.4
2015-Jun-24 17:28N 55°15' E 014°19'3417.5
2015-Jun-24 15:33N 55°27' E 015°13'11018.1
2015-Jun-24 09:29N 55°34' E 018°27'  
Track history (hours):
 
Tides and Currents Weather Stations Pressure Air Temp Water Temp Dewpoint Dewpoint Depression Visibility Wind Speed Wind Dir Waves Ship Positions

Containerships 6

Last reported at 2015-Jul-02 21:31 UTC. Time now 2015-Jul-02 23:10 UTC.
Position N 60°01' E 027°15'.

Length 155 m; beam 21.8 m; draft 8.9 m.

Type: Ship (hazmat cat A). MMSI: 211315096.

Date/timePositionNaut miles runAvg speedWind from/ knotsBaromVisibWave heightAir tempDewpointWater temp
2015-Jul-02 21:31N 60°01' E 027°15'1314.0
2015-Jul-02 20:33N 59°59' E 026°49'1514.7
2015-Jul-02 19:34N 59°57' E 026°20'1515.0
2015-Jul-02 18:34N 59°53' E 025°51'1613.5
2015-Jul-02 17:23N 59°58' E 025°21'16 1.9
2015-Jul-02 09:09N 60°13' E 025°12'0 0.0
2015-Jul-02 08:32N 60°13' E 025°12'0 0.0
2015-Jul-02 05:26N 60°13' E 025°12'0 0.0
2015-Jul-02 04:04N 60°13' E 025°12'0 0.5
2015-Jul-02 03:34N 60°13' E 025°12'1310.8
2015-Jul-02 02:23N 60°00' E 025°06'1517.6
2015-Jul-02 01:32N 59°48' E 024°49'1717.3
2015-Jul-02 00:34N 59°42' E 024°17'1817.8
2015-Jul-01 23:33N 59°37' E 023°44'1817.9
2015-Jul-01 22:33N 59°32' E 023°10'1818.0
2015-Jul-01 21:33N 59°26' E 022°36'1817.9
2015-Jul-01 20:33N 59°15' E 022°09'21217.5
2015-Jul-01 08:24N 56°32' E 017°53'8617.8
2015-Jul-01 03:33N 55°44' E 015°44'1818.0
2015-Jul-01 02:33N 55°35' E 015°17'1817.9
2015-Jul-01 01:33N 55°27' E 014°49'1817.7
2015-Jul-01 00:33N 55°14' E 014°27'1817.8
2015-Jun-30 23:34N 55°01' E 014°07'2417.8
2015-Jun-30 22:14N 54°53' E 013°28'1317.9
2015-Jun-30 21:30N 54°49' E 013°07'2117.5
2015-Jun-30 20:19N 54°41' E 012°34'1417.0
2015-Jun-30 19:29N 54°31' E 012°16'1515.8
2015-Jun-30 18:34N 54°23' E 011°56'1817.6
2015-Jun-30 17:33N 54°14' E 011°29'1717.4
2015-Jun-30 16:33N 54°04' E 011°05'15 1.3
2015-Jun-30 05:32N 53°54' E 010°46'4 4.0
2015-Jun-30 04:30N 53°57' E 010°52'7 7.7
2015-Jun-30 03:33N 54°03' E 010°59'0 0.0
2015-Jun-30 02:32N 54°03' E 010°60'0 0.0
2015-Jun-30 01:23N 54°03' E 010°60'0 0.0
2015-Jun-29 23:30N 54°03' E 010°59'1112.2
2015-Jun-29 22:33N 54°10' E 011°14'1616.2
2015-Jun-29 21:33N 54°25' E 011°24'1615.9
2015-Jun-29 20:33N 54°37' E 011°05'1615.6
2015-Jun-29 19:33N 54°50' E 010°52'1616.2
2015-Jun-29 18:34N 55°05' E 011°02'1716.5
2015-Jun-29 17:33N 55°22' E 011°02'8814.5
2015-Jun-29 11:29N 56°46' E 011°50'1516.5
2015-Jun-29 10:33N 57°00' E 011°42'1616.4
2015-Jun-29 09:33N 57°16' E 011°31'1616.2
2015-Jun-29 08:33N 57°30' E 011°18'1616.0
2015-Jun-29 07:33N 57°41' E 010°56'27015.0
2015-Jun-28 13:30N 54°23' E 005°27'5 5.4
2015-Jun-28 12:32N 54°19' E 005°22'5 5.1
2015-Jun-28 11:33N 54°15' E 005°17'6 6.1
2015-Jun-28 10:33N 54°09' E 005°12'1615.8
2015-Jun-28 09:33N 53°55' E 005°02'1716.9
2015-Jun-28 08:34N 53°39' E 004°52'1716.6
2015-Jun-28 07:33N 53°24' E 004°41'1616.4
2015-Jun-28 06:33N 53°09' E 004°29'1716.5
2015-Jun-28 05:33N 52°54' E 004°17'1716.5
2015-Jun-28 04:33N 52°40' E 004°04'1616.4
2015-Jun-28 03:33N 52°24' E 003°53'1716.9
2015-Jun-28 02:33N 52°08' E 003°55'1514.8
2015-Jun-28 01:33N 51°57' E 004°11'9 9.2
2015-Jun-28 00:33N 51°53' E 004°25'0 0.2
2015-Jun-27 23:33N 51°53' E 004°25'0 0.0
2015-Jun-27 22:33N 51°53' E 004°25'0 0.0
2015-Jun-27 21:34N 51°53' E 004°25'0 0.0
2015-Jun-27 20:33N 51°53' E 004°25'0 0.0
2015-Jun-27 19:33N 51°53' E 004°25'0 0.0
2015-Jun-27 18:34N 51°53' E 004°25'0 0.0
2015-Jun-27 17:33N 51°53' E 004°25'0 0.0
2015-Jun-27 16:34N 51°53' E 004°25'0 0.0
2015-Jun-27 15:34N 51°53' E 004°25'0 0.0
2015-Jun-27 14:33N 51°53' E 004°25'0 0.0
2015-Jun-27 13:33N 51°53' E 004°25'0 0.0
2015-Jun-27 12:33N 51°53' E 004°25'0 0.0
2015-Jun-27 11:33N 51°53' E 004°25'3 2.8
2015-Jun-27 10:33N 51°54' E 004°21'1211.6
2015-Jun-27 09:33N 51°59' E 004°04'1616.0
2015-Jun-27 08:33N 52°04' E 003°39'2017.3
2015-Jun-27 07:25N 52°15' E 003°13'3116.2
2015-Jun-27 05:29N 52°32' E 002°30'1718.2
2015-Jun-27 04:33N 52°42' E 002°07'1918.7
2015-Jun-27 03:33N 52°53' E 001°42'1918.6
2015-Jun-27 02:34N 53°07' E 001°22'5418.1
2015-Jun-26 23:33N 53°52' E 000°31'1817.9
2015-Jun-26 22:33N 54°05' E 000°11'1817.6
2015-Jun-26 21:33N 54°18' W 000°09'1817.7
2015-Jun-26 20:33N 54°31' W 000°30'1717.3
2015-Jun-26 19:33N 54°39' W 000°57'7 0.7
2015-Jun-26 09:14N 54°38' W 001°09'1413.4
2015-Jun-26 08:11N 54°46' W 000°50'914.7
2015-Jun-26 07:33N 54°50' W 000°35'1514.9
2015-Jun-26 06:34N 54°57' W 000°12'1716.4
2015-Jun-26 05:33N 55°04' E 000°13'1616.4
2015-Jun-26 04:33N 55°12' E 000°39'37216.9
2015-Jun-25 06:33N 57°46' E 010°52'1716.8
2015-Jun-25 05:34N 57°34' E 011°15'1716.8
2015-Jun-25 04:34N 57°21' E 011°33'1717.1
2015-Jun-25 03:33N 57°04' E 011°43'1716.8
2015-Jun-25 02:33N 56°49' E 011°54'1716.8
2015-Jun-25 01:33N 56°34' E 012°09'1717.0
2015-Jun-25 00:34N 56°19' E 012°22'1716.7
2015-Jun-24 23:33N 56°04' E 012°37'1616.0
2015-Jun-24 22:34N 55°49' E 012°44'1514.9
2015-Jun-24 21:34N 55°34' E 012°42'1615.5
2015-Jun-24 20:33N 55°19' E 012°41'1817.8
2015-Jun-24 19:33N 55°15' E 013°11'3818.4
2015-Jun-24 17:28N 55°15' E 014°19'3417.5
2015-Jun-24 15:33N 55°27' E 015°13'11018.1
2015-Jun-24 09:29N 55°34' E 018°27'  

Dump ship's entire track history